Time;durP1;ratioP1;P1;durP2;ratioP2;P2;SDS_P1;SDS_P2;PMS_P1;PMS_P2;Temp;Humidity;BMP_temperature;BMP_pressure;BME280_temperature;BME280_humidity;BME280_pressure;Samples;Min_cycle;Max_cycle;Signal;HPM_P1;HPM_P2
2020/12/30 00:00:24;;;;;;;9.43;6.97;;;8.20;93.90;;;;;;5070598;28;20662;-52
2020/12/30 00:02:51;;;;;;;9.37;6.57;;;8.20;93.90;;;;;;5078356;28;20677;-52
2020/12/30 00:05:25;;;;;;;9.70;6.90;;;8.20;94.30;;;;;;5090178;28;21009;-54
2020/12/30 00:07:52;;;;;;;8.77;7.57;;;8.20;93.90;;;;;;5089803;28;20634;-52
2020/12/30 00:10:20;;;;;;;8.10;7.30;;;8.10;94.00;;;;;;5081731;28;20618;-51
2020/12/30 00:12:46;;;;;;;8.87;6.73;;;8.20;94.00;;;;;;5068889;28;20663;-50
2020/12/30 00:15:14;;;;;;;7.87;6.00;;;8.20;94.00;;;;;;5068474;28;20666;-51
2020/12/30 00:17:41;;;;;;;7.20;6.60;;;8.20;93.90;;;;;;5072597;28;20669;-53
2020/12/30 00:20:09;;;;;;;7.07;6.33;;;8.20;93.80;;;;;;5072790;28;20664;-52
2020/12/30 00:22:36;;;;;;;6.73;6.23;;;8.30;93.80;;;;;;5054456;28;20632;-52
2020/12/30 00:25:03;;;;;;;8.80;6.93;;;8.30;93.70;;;;;;5082849;28;20625;-51
2020/12/30 00:27:30;;;;;;;6.67;6.10;;;8.30;93.70;;;;;;5092444;28;20668;-52
2020/12/30 00:29:56;;;;;;;6.77;6.10;;;8.30;93.60;;;;;;5080559;28;20760;-52
2020/12/30 00:32:24;;;;;;;9.23;7.23;;;8.20;93.30;;;;;;5074854;28;20699;-52
2020/12/30 00:34:51;;;;;;;7.97;7.27;;;8.20;93.40;;;;;;5073925;28;20626;-52
2020/12/30 00:37:18;;;;;;;6.40;5.80;;;8.20;93.50;;;;;;5074052;28;20633;-52
2020/12/30 00:39:45;;;;;;;7.10;6.40;;;8.20;93.50;;;;;;5073278;28;20656;-53
2020/12/30 00:42:11;;;;;;;11.10;5.60;;;8.10;93.40;;;;;;5072998;28;20786;-52
2020/12/30 00:44:38;;;;;;;5.67;5.20;;;8.00;93.80;;;;;;5081367;28;20712;-51
2020/12/30 00:47:05;;;;;;;6.37;5.70;;;8.00;93.60;;;;;;5091106;28;20681;-52
2020/12/30 00:49:33;;;;;;;7.57;6.87;;;8.00;93.70;;;;;;5085810;28;20719;-51
2020/12/30 00:51:59;;;;;;;8.33;6.33;;;7.90;93.70;;;;;;5056205;28;20686;-52
2020/12/30 00:54:26;;;;;;;8.00;7.20;;;7.80;93.70;;;;;;5092524;28;21186;-52
2020/12/30 00:56:53;;;;;;;8.27;5.97;;;7.90;93.90;;;;;;5092929;28;20693;-50
2020/12/30 00:59:20;;;;;;;9.60;6.07;;;7.90;94.00;;;;;;5079847;28;20671;-52
2020/12/30 01:01:51;;;;;;;6.53;5.27;;;7.90;94.00;;;;;;5073430;28;20652;-54
2020/12/30 01:04:18;;;;;;;6.23;5.60;;;7.90;94.10;;;;;;5072999;28;20663;-51
2020/12/30 01:06:49;;;;;;;8.63;5.87;;;7.90;94.00;;;;;;5071661;28;20705;-51
2020/12/30 01:09:16;;;;;;;6.10;5.50;;;8.00;94.00;;;;;;5071887;28;20666;-52
2020/12/30 01:11:42;;;;;;;7.43;6.73;;;8.00;94.00;;;;;;5071686;28;20646;-53
2020/12/30 01:14:09;;;;;;;6.70;6.10;;;8.00;93.90;;;;;;5070956;28;20749;-53
2020/12/30 01:16:36;;;;;;;7.80;6.63;;;8.00;93.90;;;;;;5071808;28;20654;-51
2020/12/30 01:19:03;;;;;;;7.60;6.90;;;8.00;94.30;;;;;;5072596;28;21212;-51
2020/12/30 01:21:30;;;;;;;6.27;5.70;;;8.00;94.00;;;;;;5074619;28;21280;-52
2020/12/30 01:23:57;;;;;;;7.20;6.50;;;8.00;93.90;;;;;;5082405;28;20636;-53
2020/12/30 01:26:24;;;;;;;7.03;5.80;;;8.00;94.00;;;;;;5071555;28;21043;-50
2020/12/30 01:28:51;;;;;;;7.63;6.93;;;8.00;94.10;;;;;;5071399;28;20668;-50
2020/12/30 01:31:17;;;;;;;6.93;6.23;;;8.00;94.10;;;;;;5070974;28;20694;-52
2020/12/30 01:33:44;;;;;;;8.40;6.50;;;8.10;94.10;;;;;;5070892;28;21149;-51
2020/12/30 01:36:12;;;;;;;11.20;6.87;;;8.10;94.10;;;;;;5071202;28;20656;-52
2020/12/30 01:38:39;;;;;;;7.93;7.13;;;8.10;94.00;;;;;;5071387;28;21118;-51
2020/12/30 01:41:06;;;;;;;7.70;7.00;;;8.20;94.00;;;;;;5070539;28;20659;-53
2020/12/30 01:43:33;;;;;;;9.63;7.60;;;8.20;93.90;;;;;;5071063;28;20632;-52
2020/12/30 01:46:00;;;;;;;8.77;6.97;;;8.20;93.90;;;;;;5071000;28;20745;-51
2020/12/30 01:48:29;;;;;;;7.37;6.63;;;8.20;93.90;;;;;;5070947;28;20662;-51
2020/12/30 01:50:56;;;;;;;9.63;7.57;;;8.30;93.90;;;;;;5070182;28;20707;-51
2020/12/30 01:53:23;;;;;;;10.70;6.60;;;8.20;93.80;;;;;;5087397;28;20698;-51
2020/12/30 01:55:49;;;;;;;6.50;5.90;;;8.20;93.80;;;;;;5090909;28;20995;-51
2020/12/30 01:58:17;;;;;;;7.20;6.50;;;8.20;94.10;;;;;;5090941;28;20653;-51
2020/12/30 02:00:48;;;;;;;6.50;5.90;;;8.30;93.90;;;;;;5088485;28;20701;-51
2020/12/30 02:03:15;;;;;;;6.83;6.13;;;8.30;93.90;;;;;;5090699;28;20669;-51
2020/12/30 02:05:41;;;;;;;6.33;5.63;;;8.30;93.80;;;;;;5090757;28;20663;-51
2020/12/30 02:08:08;;;;;;;7.13;6.43;;;8.30;93.70;;;;;;5090445;28;20644;-51
2020/12/30 02:10:35;;;;;;;7.43;6.73;;;8.20;93.80;;;;;;5091048;28;21178;-51
2020/12/30 02:13:02;;;;;;;11.90;7.27;;;8.20;93.90;;;;;;5090795;28;20665;-51
2020/12/30 02:15:30;;;;;;;6.77;6.07;;;8.30;93.90;;;;;;5090422;28;20643;-48
2020/12/30 02:17:57;;;;;;;7.10;6.50;;;8.30;93.80;;;;;;5089876;28;21025;-49
2020/12/30 02:20:24;;;;;;;6.63;5.93;;;8.40;93.70;;;;;;5082002;28;20679;-50
2020/12/30 02:22:56;;;;;;;7.17;6.47;;;8.30;93.70;;;;;;5069339;28;20671;-49
2020/12/30 02:25:24;;;;;;;7.37;6.57;;;8.30;93.70;;;;;;5070550;28;20687;-49
2020/12/30 02:27:50;;;;;;;9.60;8.63;;;8.30;93.80;;;;;;5070205;28;20686;-50
2020/12/30 02:30:18;;;;;;;9.27;8.37;;;8.30;94.20;;;;;;5084973;28;20667;-49
2020/12/30 02:32:45;;;;;;;8.23;6.73;;;8.30;94.30;;;;;;5090399;28;21163;-51
2020/12/30 02:35:12;;;;;;;8.33;7.57;;;8.30;94.00;;;;;;5089842;28;20662;-49
2020/12/30 02:37:38;;;;;;;7.27;6.57;;;8.20;94.00;;;;;;5088538;28;20647;-49
2020/12/30 02:40:05;;;;;;;7.70;6.50;;;8.20;94.20;;;;;;5089853;28;20991;-50
2020/12/30 02:42:33;;;;;;;6.73;6.03;;;8.20;94.50;;;;;;5090420;28;21302;-49
2020/12/30 02:45:02;;;;;;;6.50;6.00;;;8.20;94.60;;;;;;5089490;28;20647;-49
2020/12/30 02:47:29;;;;;;;6.47;5.87;;;8.20;94.60;;;;;;5088979;28;20659;-49
2020/12/30 02:49:55;;;;;;;6.53;5.77;;;8.30;94.70;;;;;;5069518;28;20700;-49
2020/12/30 02:52:22;;;;;;;5.90;5.40;;;8.30;94.80;;;;;;5069959;28;20703;-50
2020/12/30 02:54:49;;;;;;;6.37;5.73;;;8.30;94.80;;;;;;5071059;28;21144;-50
2020/12/30 02:57:15;;;;;;;6.60;6.00;;;8.20;94.80;;;;;;5069663;28;20677;-50
2020/12/30 02:59:43;;;;;;;10.07;7.40;;;8.20;94.90;;;;;;5075546;28;21097;-50
2020/12/30 03:02:10;;;;;;;7.40;6.70;;;8.20;95.00;;;;;;5088724;28;20691;-50
2020/12/30 03:04:36;;;;;;;8.47;6.40;;;8.20;95.10;;;;;;5069001;28;20667;-50
2020/12/30 03:07:03;;;;;;;6.07;5.47;;;8.20;95.20;;;;;;5069403;28;20691;-50
2020/12/30 03:09:30;;;;;;;6.83;6.20;;;8.20;95.10;;;;;;5069521;28;20938;-50
2020/12/30 03:11:57;;;;;;;7.73;6.13;;;8.20;95.10;;;;;;5069316;28;20691;-50
2020/12/30 03:14:23;;;;;;;6.53;5.67;;;8.20;95.10;;;;;;5074814;28;20764;-49
2020/12/30 03:16:51;;;;;;;6.40;5.83;;;8.20;95.10;;;;;;5089552;28;20663;-51
2020/12/30 03:19:18;;;;;;;7.03;6.00;;;8.20;95.50;;;;;;5089442;28;20663;-51
2020/12/30 03:21:44;;;;;;;6.10;5.50;;;8.20;95.20;;;;;;5088424;28;21269;-51
2020/12/30 03:24:11;;;;;;;5.57;5.07;;;8.20;95.10;;;;;;5074805;28;20674;-51
2020/12/30 03:26:38;;;;;;;6.93;6.23;;;8.10;94.90;;;;;;5051450;28;20688;-51
2020/12/30 03:29:05;;;;;;;7.10;5.80;;;8.10;95.00;;;;;;5057213;28;20628;-52
2020/12/30 03:31:31;;;;;;;6.80;5.30;;;8.10;95.20;;;;;;5073764;28;20745;-50
2020/12/30 03:34:00;;;;;;;6.60;6.00;;;8.00;95.00;;;;;;5089188;28;20666;-51
2020/12/30 03:36:27;;;;;;;6.90;5.20;;;8.00;95.10;;;;;;5085445;28;21104;-51
2020/12/30 03:38:54;;;;;;;5.37;4.23;;;8.00;95.20;;;;;;5068898;28;20659;-51
2020/12/30 03:41:20;;;;;;;6.80;6.20;;;8.00;95.20;;;;;;5069346;28;20730;-51
2020/12/30 03:43:47;;;;;;;8.97;6.20;;;7.90;95.20;;;;;;5069379;28;20658;-51
2020/12/30 03:46:14;;;;;;;5.50;5.00;;;7.90;95.20;;;;;;5072240;28;20670;-51
2020/12/30 03:48:41;;;;;;;6.57;5.93;;;7.90;95.30;;;;;;5089658;28;20656;-51
2020/12/30 03:51:08;;;;;;;5.60;5.03;;;7.80;95.30;;;;;;5087369;28;22134;-52
2020/12/30 03:53:35;;;;;;;5.37;4.73;;;7.90;95.50;;;;;;5073190;28;20728;-51
2020/12/30 03:56:01;;;;;;;5.10;4.70;;;7.90;95.30;;;;;;5072864;28;20738;-51
2020/12/30 03:58:28;;;;;;;6.37;5.47;;;7.80;95.20;;;;;;5073097;28;20655;-51
2020/12/30 04:00:55;;;;;;;5.40;4.90;;;7.80;95.20;;;;;;5075940;28;20693;-51
2020/12/30 04:03:22;;;;;;;5.83;3.90;;;7.80;95.40;;;;;;5072597;28;20658;-51
2020/12/30 04:05:50;;;;;;;3.90;3.60;;;7.70;95.50;;;;;;5073129;28;20708;-51
2020/12/30 04:08:17;;;;;;;4.13;3.70;;;7.70;95.70;;;;;;5078265;28;21085;-51
2020/12/30 04:10:44;;;;;;;6.10;4.77;;;7.70;95.80;;;;;;5093621;28;20692;-51
2020/12/30 04:13:11;;;;;;;6.40;4.80;;;7.70;95.90;;;;;;5092586;28;21018;-51
2020/12/30 04:15:37;;;;;;;5.00;4.17;;;7.80;95.90;;;;;;5090395;28;20764;-51
2020/12/30 04:18:04;;;;;;;4.80;4.40;;;7.80;95.80;;;;;;5072519;28;20655;-51
2020/12/30 04:20:31;;;;;;;5.47;4.90;;;7.80;95.70;;;;;;5072666;28;20690;-51
2020/12/30 04:22:58;;;;;;;6.67;5.60;;;7.80;95.70;;;;;;5072646;28;20644;-51
2020/12/30 04:25:25;;;;;;;5.60;5.20;;;7.80;95.70;;;;;;5079836;28;20671;-51
2020/12/30 04:27:52;;;;;;;8.00;4.87;;;7.80;95.60;;;;;;5072422;28;20809;-51
2020/12/30 04:30:19;;;;;;;5.27;4.27;;;7.80;95.80;;;;;;5074166;28;21197;-50
2020/12/30 04:32:45;;;;;;;4.07;3.67;;;7.80;95.70;;;;;;5092357;28;20643;-52
2020/12/30 04:35:12;;;;;;;4.97;4.57;;;7.70;95.80;;;;;;5092042;28;21147;-51
2020/12/30 04:37:39;;;;;;;5.17;4.53;;;7.60;95.90;;;;;;5093070;28;20659;-51
2020/12/30 04:40:06;;;;;;;7.40;5.50;;;7.60;96.00;;;;;;5092339;28;20663;-51
2020/12/30 04:42:34;;;;;;;4.80;4.40;;;7.70;96.20;;;;;;5092452;28;20666;-51
2020/12/30 04:45:04;;;;;;;4.20;3.80;;;7.70;96.20;;;;;;5090895;28;20657;-51
2020/12/30 04:47:31;;;;;;;6.20;5.10;;;7.70;96.20;;;;;;5092315;28;20763;-51
2020/12/30 04:49:58;;;;;;;5.00;4.47;;;7.70;96.20;;;;;;5092277;28;20696;-51
2020/12/30 04:52:25;;;;;;;4.63;4.27;;;7.80;96.20;;;;;;5092224;28;20685;-51
2020/12/30 04:54:52;;;;;;;4.60;4.20;;;7.80;96.10;;;;;;5086479;28;21182;-51
2020/12/30 04:57:23;;;;;;;6.23;5.63;;;7.70;95.90;;;;;;5071858;28;20658;-50
2020/12/30 04:59:52;;;;;;;6.60;6.00;;;7.70;96.00;;;;;;5075751;28;20732;-51
2020/12/30 05:02:23;;;;;;;6.23;5.57;;;7.70;96.10;;;;;;5091622;28;20687;-51
2020/12/30 05:04:49;;;;;;;6.60;5.50;;;7.70;96.10;;;;;;5091470;28;20619;-51
2020/12/30 05:07:16;;;;;;;7.70;5.63;;;7.70;96.10;;;;;;5091938;28;20696;-51
2020/12/30 05:09:43;;;;;;;8.40;7.00;;;7.70;96.20;;;;;;5092162;28;20669;-51
2020/12/30 05:12:11;;;;;;;5.80;4.73;;;7.60;96.20;;;;;;5091695;28;20657;-51
2020/12/30 05:14:38;;;;;;;5.50;4.80;;;7.70;96.20;;;;;;5089177;28;20784;-51
2020/12/30 05:17:06;;;;;;;5.03;4.27;;;7.70;96.30;;;;;;5071725;28;20655;-51
2020/12/30 05:19:33;;;;;;;4.87;4.47;;;7.70;96.30;;;;;;5071979;28;20619;-51
2020/12/30 05:21:59;;;;;;;9.93;5.17;;;7.70;96.10;;;;;;5077651;28;20694;-51
2020/12/30 05:24:27;;;;;;;5.03;4.63;;;7.80;96.10;;;;;;5089182;28;21022;-51
2020/12/30 05:26:54;;;;;;;5.60;4.77;;;7.80;96.00;;;;;;5052375;28;20687;-51
2020/12/30 05:29:20;;;;;;;4.97;4.30;;;7.90;96.00;;;;;;5055809;28;20683;-51
2020/12/30 05:31:50;;;;;;;5.37;4.87;;;7.80;95.70;;;;;;5091438;28;20682;-51
2020/12/30 05:34:19;;;;;;;4.60;4.17;;;7.80;95.70;;;;;;5091082;28;20694;-51
2020/12/30 05:36:46;;;;;;;3.10;2.90;;;7.80;95.70;;;;;;5091545;28;20994;-51
2020/12/30 05:39:20;;;;;;;6.23;4.10;;;7.80;95.70;;;;;;5091121;28;20642;-51
2020/12/30 05:41:46;;;;;;;3.87;3.57;;;7.80;95.80;;;;;;5090899;28;21059;-51
2020/12/30 05:44:19;;;;;;;5.50;4.10;;;7.80;95.80;;;;;;5089407;28;20764;-51
2020/12/30 05:46:47;;;;;;;5.67;4.80;;;7.80;95.70;;;;;;5086496;28;20732;-51
2020/12/30 05:49:32;;;;;;;7.40;4.63;;;7.90;95.70;;;;;;5090204;28;21179;-52
2020/12/30 05:51:59;;;;;;;4.70;4.30;;;7.80;95.50;;;;;;5060581;28;20726;-52
2020/12/30 05:54:26;;;;;;;4.83;4.43;;;7.80;95.70;;;;;;5084169;28;20726;-52
2020/12/30 05:56:52;;;;;;;7.90;4.63;;;7.90;95.70;;;;;;5083688;28;20688;-51
2020/12/30 05:59:19;;;;;;;5.13;4.67;;;7.90;95.70;;;;;;5064685;28;20653;-51
2020/12/30 06:01:46;;;;;;;4.20;3.83;;;7.80;95.60;;;;;;5070322;28;20678;-51
2020/12/30 06:04:17;;;;;;;5.77;5.07;;;7.80;95.70;;;;;;5082453;28;20658;-51
2020/12/30 06:06:45;;;;;;;5.07;4.57;;;7.90;95.70;;;;;;5071310;28;20694;-49
2020/12/30 06:09:16;;;;;;;5.07;4.33;;;7.90;95.60;;;;;;5070270;28;20625;-50
2020/12/30 06:11:49;;;;;;;5.40;4.80;;;7.90;95.60;;;;;;5070796;28;20683;-50
2020/12/30 06:14:16;;;;;;;5.73;5.23;;;7.90;95.50;;;;;;5069851;28;20632;-49
2020/12/30 06:16:43;;;;;;;5.00;4.30;;;7.90;95.50;;;;;;5070427;28;21137;-50
2020/12/30 06:19:11;;;;;;;5.60;4.90;;;7.80;95.40;;;;;;5070967;28;20907;-50
2020/12/30 06:21:41;;;;;;;9.13;4.40;;;7.80;95.50;;;;;;5070483;28;21037;-50
2020/12/30 06:24:11;;;;;;;5.00;4.50;;;7.80;95.40;;;;;;5070123;28;20996;-50
2020/12/30 06:26:38;;;;;;;4.20;3.83;;;7.70;95.50;;;;;;5070303;28;20675;-50
2020/12/30 06:29:09;;;;;;;7.10;4.30;;;7.70;95.70;;;;;;5071948;28;20667;-50
2020/12/30 06:31:43;;;;;;;5.93;4.33;;;7.60;95.80;;;;;;5070264;28;20652;-50
2020/12/30 06:34:10;;;;;;;4.23;3.63;;;7.60;95.90;;;;;;5070074;28;20677;-50
2020/12/30 06:36:37;;;;;;;5.03;4.57;;;7.60;95.90;;;;;;5070275;28;21006;-49
2020/12/30 06:39:18;;;;;;;4.90;3.80;;;7.60;95.90;;;;;;5070025;28;20658;-50
2020/12/30 06:42:00;;;;;;;5.23;4.27;;;7.60;95.90;;;;;;5070427;28;20664;-50
2020/12/30 06:44:37;;;;;;;6.30;4.70;;;7.70;96.10;;;;;;5069414;28;20683;-50
2020/12/30 06:47:04;;;;;;;7.40;3.40;;;7.60;96.20;;;;;;5069720;28;21075;-50
2020/12/30 06:49:31;;;;;;;5.33;3.87;;;7.60;96.10;;;;;;5070098;28;20687;-50
2020/12/30 06:51:57;;;;;;;6.83;4.03;;;7.60;96.00;;;;;;5069704;28;20689;-50
2020/12/30 06:54:46;;;;;;;4.97;3.37;;;7.60;95.80;;;;;;5069607;28;21007;-50
2020/12/30 06:57:38;;;;;;;4.90;3.67;;;7.60;95.90;;;;;;5070176;28;21172;-50
2020/12/30 07:00:38;;;;;;;4.60;4.10;;;7.70;95.80;;;;;;5070351;28;20658;-50
2020/12/30 07:03:18;;;;;;;4.47;3.23;;;7.60;95.80;;;;;;5067745;28;20636;-50
2020/12/30 07:05:45;;;;;;;4.73;4.20;;;7.60;95.60;;;;;;5069954;28;21006;-50
2020/12/30 07:08:39;;;;;;;4.47;4.07;;;7.70;95.80;;;;;;5070194;28;20691;-50
2020/12/30 07:11:06;;;;;;;4.80;4.07;;;7.70;95.70;;;;;;5069727;28;20657;-51
2020/12/30 07:13:38;;;;;;;4.80;3.73;;;7.70;95.60;;;;;;5069385;28;20616;-50
2020/12/30 07:16:14;;;;;;;5.27;3.90;;;7.80;95.50;;;;;;5069710;28;20838;-50
2020/12/30 07:18:47;;;;;;;4.30;3.87;;;7.80;95.40;;;;;;5070335;28;20631;-50
2020/12/30 07:21:14;;;;;;;4.03;3.67;;;7.80;95.40;;;;;;5069466;28;20692;-50
2020/12/30 07:23:41;;;;;;;8.47;4.30;;;7.80;95.40;;;;;;5069561;28;21005;-50
2020/12/30 07:26:17;;;;;;;4.33;3.97;;;7.80;95.30;;;;;;5058427;28;20682;-50
2020/12/30 07:28:44;;;;;;;5.87;3.83;;;7.80;95.30;;;;;;5049264;28;20688;-50
2020/12/30 07:31:12;;;;;;;5.27;3.93;;;7.90;95.20;;;;;;5049692;28;20657;-50
2020/12/30 07:33:39;;;;;;;5.37;3.93;;;7.90;95.20;;;;;;5049488;28;20661;-49
2020/12/30 07:36:05;;;;;;;5.07;4.57;;;7.90;95.30;;;;;;5049750;28;20662;-49
2020/12/30 07:38:33;;;;;;;6.27;4.90;;;7.80;95.10;;;;;;5049140;28;20652;-49
2020/12/30 07:41:06;;;;;;;6.20;4.50;;;7.80;95.10;;;;;;5049700;28;20653;-49
2020/12/30 07:43:46;;;;;;;6.10;4.97;;;7.80;95.10;;;;;;5049443;28;20776;-49
2020/12/30 07:46:17;;;;;;;6.87;4.33;;;7.80;95.20;;;;;;5068412;28;20670;-50
2020/12/30 07:48:43;;;;;;;6.13;4.77;;;7.80;95.00;;;;;;5069290;28;20686;-49
2020/12/30 07:51:10;;;;;;;8.03;4.60;;;7.90;95.10;;;;;;5069205;28;20660;-50
2020/12/30 07:53:37;;;;;;;8.90;4.50;;;7.90;95.10;;;;;;5050391;28;20629;-50
2020/12/30 07:56:04;;;;;;;4.40;4.00;;;7.80;94.90;;;;;;5069371;28;20670;-51
2020/12/30 07:58:30;;;;;;;4.70;4.30;;;7.90;94.80;;;;;;5069129;28;20660;-50
2020/12/30 08:00:58;;;;;;;10.20;5.17;;;7.90;94.80;;;;;;5069339;28;20714;-49
2020/12/30 08:03:25;;;;;;;6.30;5.33;;;7.90;94.80;;;;;;5069337;28;20968;-50
2020/12/30 08:05:52;;;;;;;7.60;4.33;;;7.90;94.70;;;;;;5069360;28;20656;-49
2020/12/30 08:08:18;;;;;;;5.20;3.80;;;7.90;94.90;;;;;;5068871;28;20691;-49
2020/12/30 08:10:48;;;;;;;4.87;4.10;;;7.90;94.70;;;;;;5069334;28;20944;-51
2020/12/30 08:13:15;;;;;;;5.07;3.93;;;7.90;94.70;;;;;;5069621;28;20635;-52
2020/12/30 08:15:51;;;;;;;4.30;3.53;;;7.80;94.50;;;;;;5069777;28;20664;-52
2020/12/30 08:18:19;;;;;;;6.17;3.90;;;7.80;94.50;;;;;;5069313;28;20652;-52
2020/12/30 08:20:45;;;;;;;5.17;3.57;;;7.80;94.40;;;;;;5069145;28;21222;-52
2020/12/30 08:23:14;;;;;;;2.73;2.50;;;7.90;94.50;;;;;;5051375;28;20627;-52
2020/12/30 08:25:41;;;;;;;4.23;2.50;;;7.90;94.40;;;;;;5061435;28;20714;-52
2020/12/30 08:28:07;;;;;;;2.70;2.30;;;8.00;94.50;;;;;;5048665;28;20762;-51
2020/12/30 08:30:34;;;;;;;2.93;2.70;;;8.00;94.40;;;;;;5049333;28;20695;-52
2020/12/30 08:33:05;;;;;;;3.30;2.87;;;8.10;94.30;;;;;;5049357;28;20636;-52
2020/12/30 08:35:35;;;;;;;3.70;3.10;;;8.00;94.10;;;;;;5048935;28;20695;-52
2020/12/30 08:38:06;;;;;;;3.67;3.30;;;8.10;94.20;;;;;;5051937;28;20645;-52
2020/12/30 08:40:34;;;;;;;4.70;2.80;;;8.10;94.10;;;;;;5052317;28;20703;-52
2020/12/30 08:43:38;;;;;;;3.03;2.73;;;8.00;93.80;;;;;;5052256;28;20629;-51
2020/12/30 08:46:09;;;;;;;3.80;3.50;;;8.00;93.90;;;;;;5052179;28;20631;-51
2020/12/30 08:48:47;;;;;;;4.20;3.43;;;8.00;94.10;;;;;;5052348;28;20688;-50
2020/12/30 08:51:31;;;;;;;4.50;3.80;;;8.00;94.30;;;;;;5070686;28;20732;-51
2020/12/30 08:53:58;;;;;;;4.60;3.20;;;8.10;94.20;;;;;;5072570;28;21270;-51
2020/12/30 08:56:24;;;;;;;5.30;3.47;;;8.10;94.00;;;;;;5072413;28;21210;-51
2020/12/30 08:58:53;;;;;;;4.40;3.60;;;8.00;93.90;;;;;;5072780;28;20670;-52
2020/12/30 09:01:20;;;;;;;5.13;3.53;;;8.00;94.00;;;;;;5071820;28;20653;-51
2020/12/30 09:03:47;;;;;;;6.03;3.90;;;8.00;94.40;;;;;;5072773;28;20651;-52
2020/12/30 09:06:24;;;;;;;2.93;2.63;;;8.00;94.10;;;;;;5073293;28;20652;-51
2020/12/30 09:08:52;;;;;;;6.03;3.33;;;8.10;94.40;;;;;;5073256;28;21001;-51
2020/12/30 09:11:18;;;;;;;2.77;2.43;;;8.10;94.00;;;;;;5072922;28;20695;-50
2020/12/30 09:13:45;;;;;;;9.40;3.77;;;8.10;93.90;;;;;;5072367;28;20958;-51
2020/12/30 09:16:12;;;;;;;3.07;2.73;;;8.00;94.00;;;;;;5072307;28;20632;-51
2020/12/30 09:18:38;;;;;;;6.00;4.00;;;8.10;94.20;;;;;;5071500;28;20659;-52
2020/12/30 09:21:24;;;;;;;4.80;3.23;;;8.10;94.10;;;;;;5071693;28;20675;-52
2020/12/30 09:23:52;;;;;;;7.40;3.67;;;8.10;94.30;;;;;;5071760;28;20644;-51
2020/12/30 09:26:28;;;;;;;4.23;2.80;;;8.10;94.20;;;;;;5071792;28;20658;-52
2020/12/30 09:28:55;;;;;;;6.60;3.47;;;8.10;94.00;;;;;;5071614;28;20722;-52
2020/12/30 09:31:22;;;;;;;4.90;3.20;;;8.10;94.10;;;;;;5070900;28;20656;-52
2020/12/30 09:33:49;;;;;;;4.37;3.90;;;8.10;94.00;;;;;;5071722;28;20652;-52
2020/12/30 09:36:16;;;;;;;5.33;4.80;;;8.00;94.10;;;;;;5071561;28;21160;-52
2020/12/30 09:38:43;;;;;;;7.93;4.43;;;8.00;94.40;;;;;;5071539;28;20987;-52
2020/12/30 09:41:14;;;;;;;3.30;3.00;;;8.00;94.20;;;;;;5071236;28;21067;-52
2020/12/30 09:43:46;;;;;;;4.50;3.80;;;8.10;94.20;;;;;;5071076;28;20663;-52
2020/12/30 09:46:20;;;;;;;3.50;3.13;;;8.10;94.10;;;;;;5071034;28;20672;-52
2020/12/30 09:48:47;;;;;;;4.33;3.93;;;8.20;94.10;;;;;;5070213;28;20773;-52
2020/12/30 09:51:15;;;;;;;6.27;4.30;;;8.10;94.00;;;;;;5052744;28;20710;-52
2020/12/30 09:53:44;;;;;;;3.90;3.37;;;8.20;94.00;;;;;;5070779;28;20667;-52
2020/12/30 09:56:13;;;;;;;5.03;2.93;;;8.20;94.00;;;;;;5071034;28;20655;-52
2020/12/30 09:58:40;;;;;;;4.30;3.27;;;8.20;94.10;;;;;;5070846;28;21291;-52
2020/12/30 10:01:07;;;;;;;5.63;3.67;;;8.20;94.10;;;;;;5070968;28;20737;-53
2020/12/30 10:03:34;;;;;;;5.23;3.30;;;8.30;94.20;;;;;;5071383;28;20635;-52
2020/12/30 10:06:00;;;;;;;5.80;3.60;;;8.30;94.20;;;;;;5071310;28;20656;-52
2020/12/30 10:08:27;;;;;;;4.40;3.20;;;8.20;94.40;;;;;;5070165;28;20685;-51
2020/12/30 10:10:54;;;;;;;5.93;3.80;;;8.20;94.50;;;;;;5070826;28;20700;-52
2020/12/30 10:13:21;;;;;;;3.00;2.40;;;8.20;94.60;;;;;;5070937;28;20660;-51
2020/12/30 10:15:48;;;;;;;5.43;3.77;;;8.20;94.40;;;;;;5070569;28;20653;-52
2020/12/30 10:18:15;;;;;;;4.30;3.50;;;8.20;94.50;;;;;;5070602;28;20659;-52
2020/12/30 10:20:42;;;;;;;5.70;4.03;;;8.20;94.60;;;;;;5070506;28;20752;-52
2020/12/30 10:23:09;;;;;;;4.43;4.07;;;8.20;94.50;;;;;;5070036;28;20631;-52
2020/12/30 10:25:36;;;;;;;5.07;4.60;;;8.20;94.40;;;;;;5070560;28;20627;-52
2020/12/30 10:28:03;;;;;;;3.30;2.90;;;8.30;94.60;;;;;;5070411;28;20760;-52
2020/12/30 10:30:30;;;;;;;5.47;3.80;;;8.40;94.40;;;;;;5070407;28;21239;-52
2020/12/30 10:32:59;;;;;;;5.73;3.00;;;8.40;93.90;;;;;;5070186;28;20713;-52
2020/12/30 10:35:25;;;;;;;5.17;4.00;;;8.40;93.80;;;;;;5070737;28;20632;-51
2020/12/30 10:37:52;;;;;;;4.20;3.80;;;8.50;93.90;;;;;;5070226;28;20962;-52
2020/12/30 10:40:22;;;;;;;4.60;4.20;;;8.40;93.70;;;;;;5069950;28;20999;-52
2020/12/30 10:42:49;;;;;;;5.60;3.80;;;8.40;93.80;;;;;;5070111;28;21246;-52
2020/12/30 10:45:15;;;;;;;4.90;3.67;;;8.50;94.10;;;;;;5069610;28;20752;-51
2020/12/30 10:47:43;;;;;;;5.10;3.37;;;8.60;94.20;;;;;;5069777;28;20624;-51
2020/12/30 10:50:10;;;;;;;3.50;3.20;;;8.60;94.00;;;;;;5069798;28;20628;-52
2020/12/30 10:52:36;;;;;;;5.07;4.53;;;8.70;93.70;;;;;;5069414;28;20668;-52
2020/12/30 10:55:03;;;;;;;5.70;4.87;;;8.70;93.50;;;;;;5069987;28;21015;-52
2020/12/30 10:57:30;;;;;;;6.70;4.00;;;8.70;93.60;;;;;;5069504;28;21030;-52
2020/12/30 10:59:57;;;;;;;8.63;4.50;;;8.80;93.60;;;;;;5069834;28;20684;-52
2020/12/30 11:02:23;;;;;;;7.00;4.30;;;8.80;93.50;;;;;;5069771;28;20681;-53
2020/12/30 11:04:51;;;;;;;5.20;3.87;;;8.80;93.30;;;;;;5069561;28;20777;-52
2020/12/30 11:07:18;;;;;;;6.10;4.87;;;8.80;93.50;;;;;;5069634;28;21253;-52
2020/12/30 11:09:45;;;;;;;4.20;3.30;;;8.90;93.40;;;;;;5069630;28;20670;-52
2020/12/30 11:12:11;;;;;;;6.03;3.60;;;8.90;93.20;;;;;;5069115;28;21071;-51
2020/12/30 11:14:38;;;;;;;6.97;4.03;;;8.90;92.90;;;;;;5070762;28;20660;-51
2020/12/30 11:17:05;;;;;;;5.40;3.50;;;9.00;93.20;;;;;;5069543;28;20663;-51
2020/12/30 11:19:31;;;;;;;3.80;3.40;;;9.10;92.90;;;;;;5069029;28;20625;-52
2020/12/30 11:21:59;;;;;;;5.07;3.80;;;9.20;92.60;;;;;;5069487;28;20676;-52
2020/12/30 11:24:26;;;;;;;4.37;3.47;;;9.20;92.80;;;;;;5068927;28;20705;-52
2020/12/30 11:26:52;;;;;;;4.23;3.67;;;9.10;92.50;;;;;;5068740;28;20732;-51
2020/12/30 11:29:19;;;;;;;9.63;4.17;;;9.00;92.80;;;;;;5068391;28;20701;-52
2020/12/30 11:31:46;;;;;;;5.00;3.80;;;8.90;92.90;;;;;;5068590;28;21232;-51
2020/12/30 11:34:13;;;;;;;4.53;3.90;;;8.90;92.90;;;;;;5068854;28;20672;-51
2020/12/30 11:36:40;;;;;;;3.30;3.00;;;8.90;93.00;;;;;;5068904;28;20789;-51
2020/12/30 11:39:07;;;;;;;6.33;4.30;;;8.90;92.90;;;;;;5069410;28;21198;-51
2020/12/30 11:41:34;;;;;;;3.77;3.43;;;8.90;92.70;;;;;;5068938;28;21065;-51
2020/12/30 11:44:01;;;;;;;4.50;4.10;;;8.70;93.40;;;;;;5069109;28;21249;-51
2020/12/30 11:46:27;;;;;;;3.27;2.97;;;8.80;93.40;;;;;;5068987;28;20660;-51
2020/12/30 11:48:54;;;;;;;8.70;4.40;;;8.80;93.30;;;;;;5069212;28;20692;-51
2020/12/30 11:51:21;;;;;;;6.20;3.20;;;8.80;93.30;;;;;;5068503;28;21271;-51
2020/12/30 11:53:48;;;;;;;4.30;4.00;;;8.80;93.00;;;;;;5068607;28;21304;-51
2020/12/30 11:56:21;;;;;;;4.93;4.37;;;8.80;93.10;;;;;;5068582;28;20652;-51
2020/12/30 11:58:48;;;;;;;11.30;4.30;;;8.80;93.30;;;;;;5068540;28;20652;-51
2020/12/30 12:01:15;;;;;;;4.13;3.80;;;8.80;93.00;;;;;;5068942;28;20660;-51
2020/12/30 12:03:42;;;;;;;7.53;4.23;;;8.70;93.30;;;;;;5068129;28;20680;-50
2020/12/30 12:06:08;;;;;;;5.70;4.33;;;8.70;93.20;;;;;;5068834;28;20676;-50
2020/12/30 12:08:35;;;;;;;5.93;5.07;;;8.80;93.40;;;;;;5068688;28;20702;-53
2020/12/30 12:11:02;;;;;;;6.50;4.17;;;8.90;93.30;;;;;;5069198;28;20692;-52
2020/12/30 12:13:30;;;;;;;5.00;4.50;;;9.00;93.10;;;;;;5072533;28;21137;-52
2020/12/30 12:15:56;;;;;;;12.57;4.90;;;9.00;92.70;;;;;;5072693;28;20628;-52
2020/12/30 12:18:23;;;;;;;5.87;4.33;;;9.10;92.60;;;;;;5072482;28;20716;-52
2020/12/30 12:20:50;;;;;;;6.33;5.00;;;9.20;92.50;;;;;;5072638;28;20692;-52
2020/12/30 12:23:16;;;;;;;7.67;4.70;;;9.20;92.20;;;;;;5072370;28;21032;-52
2020/12/30 12:25:43;;;;;;;4.97;4.57;;;9.10;92.00;;;;;;5072867;28;20632;-52
2020/12/30 12:28:10;;;;;;;5.13;4.63;;;9.10;92.10;;;;;;5071787;28;20683;-51
2020/12/30 12:30:37;;;;;;;7.87;5.17;;;9.10;92.20;;;;;;5071689;28;21302;-53
2020/12/30 12:33:04;;;;;;;8.93;5.40;;;9.20;92.40;;;;;;5072590;28;20652;-51
2020/12/30 12:35:31;;;;;;;4.97;4.60;;;9.20;92.40;;;;;;5072081;28;20731;-52
2020/12/30 12:38:05;;;;;;;4.77;4.20;;;9.20;92.20;;;;;;5072709;28;20657;-52
2020/12/30 12:40:32;;;;;;;5.57;4.30;;;9.20;92.20;;;;;;5072332;28;20676;-52
2020/12/30 12:42:58;;;;;;;5.83;4.87;;;9.10;92.50;;;;;;5072457;28;20621;-52
2020/12/30 12:45:25;;;;;;;6.37;4.53;;;9.10;92.70;;;;;;5072452;28;20644;-52
2020/12/30 12:47:53;;;;;;;10.40;4.33;;;9.10;92.50;;;;;;5072180;28;20694;-51
2020/12/30 12:50:19;;;;;;;4.77;4.00;;;9.00;92.50;;;;;;5071557;28;20692;-51
2020/12/30 12:52:46;;;;;;;8.93;5.47;;;8.90;93.00;;;;;;5071961;28;21282;-51
2020/12/30 12:55:13;;;;;;;7.97;6.03;;;8.70;93.40;;;;;;5072663;28;20640;-51
2020/12/30 12:57:40;;;;;;;5.27;4.77;;;8.70;94.00;;;;;;5072493;28;20671;-52
2020/12/30 13:00:06;;;;;;;8.97;5.53;;;8.70;94.40;;;;;;5072167;28;20707;-52
2020/12/30 13:02:33;;;;;;;6.67;5.70;;;8.60;94.30;;;;;;5072552;28;20712;-52